Paratinga, Brazil
Current Conditions -  °F | °C
As of 6:00 PM on Friday 28 Nov 2014 (Local Time) from SBQV Reporting Station
Clear Clear  
Wind Chill: 81°   Ceiling: Unl
Heat Index: 81°   Visibility: 6mi
Dew Point: 54°   Wind: 5mph
Humidity: 39%   Direction: 40°NE
Pressure: 30"   Gusts: NA
Location:  12.69°S, 43.18°W
Report Text: SBQV 282100Z 04004KT CAVOK 27/12 Q1016
Loading
Personal Weather Stations






























Interactive Weather Map New forecast layout! Learn more

10-Day Weather Forecast

Advertisements
Track Severe Weather on mobile